Time;durP1;ratioP1;P1;durP2;ratioP2;P2;SDS_P1;SDS_P2;PMS_P1;PMS_P2;Temp;Humidity;BMP_temperature;BMP_pressure;BME280_temperature;BME280_humidity;BME280_pressure;Samples;Min_cycle;Max_cycle;Signal;HPM_P1;HPM_P2
2021/11/03 01:35:19;;;;;;;55.17;31.35;;;;;;;8.01;100.00;144228.41;1834912;77;22152;-56
2021/11/03 01:37:56;;;;;;;52.08;30.90;;;;;;;8.03;100.00;144233.38;1819343;77;28429;-55
2021/11/03 01:40:36;;;;;;;54.13;31.80;;;;;;;8.09;100.00;144247.17;1835005;77;22156;-56
2021/11/03 01:43:39;;;;;;;53.70;32.33;;;;;;;8.12;100.00;144254.67;1837761;77;28428;-58
2021/11/03 01:46:30;;;;;;;52.13;28.65;;;;;;;8.16;100.00;144264.66;1853547;77;22124;-58
2021/11/03 01:49:26;;;;;;;53.70;30.02;;;;;;;8.16;100.00;144263.42;1835084;77;22547;-57
2021/11/03 01:52:20;;;;;;;57.40;31.05;;;;;;;8.15;100.00;144260.94;1834936;77;22543;-61
2021/11/03 01:55:03;;;;;;;57.60;30.27;;;;;;;8.14;100.00;144258.41;1834203;77;22185;-62
2021/11/03 01:57:44;;;;;;;58.87;30.35;;;;;;;8.14;100.00;144258.41;1834990;77;22144;-60
2021/11/03 02:00:28;;;;;;;52.17;29.18;;;;;;;8.13;100.00;144257.16;1848159;77;22155;-56
2021/11/03 02:03:11;;;;;;;53.87;29.82;;;;;;;8.09;100.00;144247.17;1800778;79;22193;-58
2021/11/03 02:05:51;;;;;;;54.35;29.35;;;;;;;8.08;100.00;144244.64;1834968;77;22152;-60
2021/11/03 02:08:33;;;;;;;55.75;28.83;;;;;;;8.05;100.00;144238.37;1853636;77;22164;-58
2021/11/03 02:11:10;;;;;;;53.20;29.63;;;;;;;8.07;100.00;144240.91;1853596;77;22123;-55
2021/11/03 02:14:07;;;;;;;58.17;30.20;;;;;;;8.07;100.00;144242.16;1853500;77;22160;-60
2021/11/03 02:16:47;;;;;;;52.62;28.57;;;;;;;8.05;100.00;144238.37;1853533;77;22188;-56
2021/11/03 02:19:27;;;;;;;48.15;27.07;;;;;;;8.05;100.00;144238.37;1853553;77;22155;-59
2021/11/03 02:22:24;;;;;;;50.60;26.52;;;;;;;8.07;100.00;144240.91;1834981;77;22169;-60
2021/11/03 02:25:22;;;;;;;50.40;27.55;;;;;;;8.08;100.00;144243.41;1835012;77;22633;-57
2021/11/03 02:28:04;;;;;;;46.58;26.40;;;;;;;8.09;100.00;144245.87;1853553;77;22211;-58
2021/11/03 02:30:39;;;;;;;49.35;26.90;;;;;;;8.09;100.00;144247.17;1853600;77;22136;-59
2021/11/03 02:33:35;;;;;;;51.58;27.50;;;;;;;8.12;100.00;144253.44;1853538;77;22148;-59
2021/11/03 02:36:09;;;;;;;43.83;25.70;;;;;;;8.12;100.00;144253.44;1835030;77;20457;-58
2021/11/03 02:38:44;;;;;;;46.30;26.77;;;;;;;8.12;100.00;144253.44;1835003;77;22160;-58
2021/11/03 02:41:32;;;;;;;44.70;26.45;;;;;;;8.14;100.00;144259.69;1834981;77;22163;-59
2021/11/03 02:44:14;;;;;;;50.70;27.50;;;;;;;8.16;100.00;144263.42;1834992;77;22156;-59
2021/11/03 02:47:09;;;;;;;47.30;26.70;;;;;;;8.19;100.00;144270.92;1834816;77;22136;-55
2021/11/03 02:49:45;;;;;;;47.93;27.80;;;;;;;8.19;100.00;144270.92;1853527;77;22185;-57
2021/11/03 02:52:41;;;;;;;52.62;29.00;;;;;;;8.19;100.00;144270.92;1835022;77;22136;-55
2021/11/03 02:55:36;;;;;;;49.88;28.42;;;;;;;8.19;100.00;144270.92;1853483;77;22156;-57
2021/11/03 02:58:11;;;;;;;50.08;28.25;;;;;;;8.18;100.00;144268.44;1835030;77;22129;-61
2021/11/03 03:00:48;;;;;;;51.80;27.65;;;;;;;8.16;100.00;144264.66;1853547;77;22562;-59
2021/11/03 03:03:44;;;;;;;53.28;29.05;;;;;;;8.21;100.00;144275.94;1853528;77;22573;-58
2021/11/03 03:06:40;;;;;;;56.23;29.60;;;;;;;8.21;100.00;144275.94;1853494;77;22176;-59
2021/11/03 03:09:16;;;;;;;52.17;30.77;;;;;;;8.20;100.00;144274.69;1819413;77;38318;-55
2021/11/03 03:12:00;;;;;;;54.27;30.20;;;;;;;8.24;100.00;144284.72;1835025;77;20096;-58
2021/11/03 03:14:39;;;;;;;50.08;29.10;;;;;;;8.25;100.00;144285.97;1835001;77;22129;-59
2021/11/03 03:17:15;;;;;;;58.33;30.20;;;;;;;8.25;100.00;144287.20;1835043;77;22181;-56
2021/11/03 03:19:51;;;;;;;48.55;28.75;;;;;;;8.26;100.00;144289.69;1834974;77;22578;-59
2021/11/03 03:22:27;;;;;;;54.70;30.57;;;;;;;8.27;100.00;144290.98;1834865;77;22176;-58
2021/11/03 03:25:05;;;;;;;56.18;31.33;;;;;;;8.29;100.00;144294.72;1835005;77;22117;-62
2021/11/03 03:27:40;;;;;;;55.45;30.75;;;;;;;8.30;100.00;144298.48;1834947;77;22121;-55
2021/11/03 03:30:15;;;;;;;55.38;30.70;;;;;;;8.29;100.00;144295.95;1835050;77;22124;-57
2021/11/03 03:32:50;;;;;;;48.65;28.80;;;;;;;8.29;100.00;144295.95;1835019;77;22128;-59
2021/11/03 03:35:25;;;;;;;59.10;31.07;;;;;;;8.28;100.00;144293.47;1835008;77;22599;-56
2021/11/03 03:38:20;;;;;;;53.58;30.25;;;;;;;8.30;100.00;144298.48;1853563;77;22183;-58
2021/11/03 03:40:56;;;;;;;44.63;27.85;;;;;;;8.31;100.00;144300.97;1819424;77;28378;-58
2021/11/03 03:43:31;;;;;;;49.65;28.10;;;;;;;8.36;100.00;144313.48;1800744;79;22144;-57
2021/11/03 03:46:06;;;;;;;48.25;26.95;;;;;;;8.38;100.00;144318.50;1835029;77;22128;-59
2021/11/03 03:49:03;;;;;;;45.35;27.85;;;;;;;8.39;100.00;144321.05;1819170;77;28010;-58
2021/11/03 03:51:57;;;;;;;42.05;26.33;;;;;;;8.44;100.00;144332.31;1834898;77;22164;-57
2021/11/03 03:54:32;;;;;;;44.27;26.48;;;;;;;8.43;100.00;144329.83;1853572;77;22136;-57
2021/11/03 03:57:07;;;;;;;45.63;26.50;;;;;;;8.41;100.00;144326.06;1853552;77;22152;-58
2021/11/03 04:00:10;;;;;;;42.83;26.25;;;;;;;8.42;100.00;144327.30;1853483;77;22136;-56
2021/11/03 04:02:47;;;;;;;45.30;26.07;;;;;;;8.39;100.00;144319.75;1834901;77;22188;-57
2021/11/03 04:05:44;;;;;;;43.17;26.07;;;;;;;8.40;100.00;144323.56;1853540;77;22625;-59
2021/11/03 04:08:38;;;;;;;50.48;26.65;;;;;;;8.39;100.00;144321.05;1834926;77;22133;-61
2021/11/03 04:11:14;;;;;;;49.25;25.43;;;;;;;8.40;100.00;144322.33;1853538;77;22554;-59
2021/11/03 04:13:54;;;;;;;49.83;27.75;;;;;;;8.41;100.00;144326.06;1834136;77;22184;-56
2021/11/03 04:16:30;;;;;;;48.60;26.97;;;;;;;8.39;100.00;144321.05;1834982;77;22124;-59
2021/11/03 04:19:24;;;;;;;45.58;27.32;;;;;;;8.39;100.00;144319.75;1843340;78;22160;-60
2021/11/03 04:21:58;;;;;;;48.75;26.30;;;;;;;8.41;100.00;144326.06;1834980;77;22128;-61
2021/11/03 04:24:34;;;;;;;47.45;26.77;;;;;;;8.43;100.00;144329.83;1853552;77;22132;-57
2021/11/03 04:27:10;;;;;;;41.55;26.15;;;;;;;8.43;100.00;144329.83;1819395;77;28012;-64
2021/11/03 04:29:45;;;;;;;42.38;28.25;;;;;;;8.45;100.00;144336.09;1837786;77;28023;-60
2021/11/03 04:32:40;;;;;;;44.42;26.23;;;;;;;8.52;100.00;144351.09;1834805;77;22141;-57
2021/11/03 04:35:16;;;;;;;44.27;25.08;;;;;;;8.52;100.00;144352.34;1853560;77;22128;-56
2021/11/03 04:37:52;;;;;;;43.90;23.55;;;;;;;8.51;100.00;144349.84;1835042;77;22188;-59
2021/11/03 04:40:28;;;;;;;42.40;23.92;;;;;;;8.50;100.00;144346.08;1835145;77;22124;-58
2021/11/03 04:43:22;;;;;;;48.00;26.40;;;;;;;8.49;100.00;144344.84;1835017;77;22145;-59
2021/11/03 04:46:18;;;;;;;46.48;23.83;;;;;;;8.50;100.00;144346.08;1853490;77;22127;-57
2021/11/03 04:49:00;;;;;;;47.20;24.55;;;;;;;8.50;100.00;144346.08;1834070;77;22159;-59
2021/11/03 04:51:35;;;;;;;37.55;22.25;;;;;;;8.52;100.00;144351.09;1834971;77;22133;-58
2021/11/03 04:54:10;;;;;;;40.75;22.90;;;;;;;8.54;100.00;144356.13;1834993;77;22128;-56
2021/11/03 04:56:45;;;;;;;43.28;23.07;;;;;;;8.55;100.00;144358.59;1834956;77;22226;-57
2021/11/03 04:59:23;;;;;;;43.05;22.75;;;;;;;8.54;100.00;144356.13;1835088;77;22153;-58
2021/11/03 05:01:58;;;;;;;43.00;23.27;;;;;;;8.54;100.00;144356.13;1843434;77;22128;-59
2021/11/03 05:04:40;;;;;;;40.45;22.35;;;;;;;8.55;100.00;144358.59;1853517;77;22133;-58
2021/11/03 05:07:15;;;;;;;39.08;24.50;;;;;;;8.56;100.00;144361.13;1837797;77;27991;-57
2021/11/03 05:09:50;;;;;;;39.58;24.07;;;;;;;8.58;100.00;144367.39;1835000;77;22167;-57
2021/11/03 05:12:25;;;;;;;38.78;23.20;;;;;;;8.63;100.00;144378.67;1835013;77;22128;-57
2021/11/03 05:15:00;;;;;;;32.25;21.60;;;;;;;8.63;100.00;144379.91;1837813;77;28018;-55
2021/11/03 05:17:35;;;;;;;35.28;22.10;;;;;;;8.68;100.00;144392.44;1853535;77;22578;-57
2021/11/03 05:20:11;;;;;;;34.60;20.77;;;;;;;8.72;100.00;144401.19;1834994;77;22546;-59
2021/11/03 05:22:55;;;;;;;36.05;21.10;;;;;;;8.73;100.00;144403.72;1834177;77;22132;-55
2021/11/03 05:25:31;;;;;;;34.43;20.43;;;;;;;8.71;100.00;144398.70;1835031;77;22543;-59
2021/11/03 05:28:06;;;;;;;30.25;20.05;;;;;;;8.72;100.00;144401.19;1837787;77;27994;-55
2021/11/03 05:30:41;;;;;;;29.63;20.12;;;;;;;8.75;100.00;144407.45;1819497;77;27983;-59
2021/11/03 05:33:16;;;;;;;29.87;18.07;;;;;;;8.82;100.00;144426.23;1834983;77;22124;-57
2021/11/03 05:36:22;;;;;;;33.18;19.62;;;;;;;8.80;100.00;144421.25;1834971;77;22120;-59
2021/11/03 05:39:00;;;;;;;31.12;18.12;;;;;;;8.82;100.00;144426.23;1834996;77;22133;-57
2021/11/03 05:41:54;;;;;;;31.90;18.73;;;;;;;8.82;100.00;144425.00;1834954;77;22268;-55
2021/11/03 05:44:29;;;;;;;30.17;17.35;;;;;;;8.83;100.00;144428.77;1843458;77;22128;-57
2021/11/03 05:47:05;;;;;;;29.87;17.62;;;;;;;8.86;100.00;144436.28;1835013;77;22129;-61
2021/11/03 05:49:40;;;;;;;30.02;15.75;;;;;;;8.88;100.00;144441.28;1853538;77;22542;-57
2021/11/03 05:52:34;;;;;;;24.55;15.68;;;;;;;8.92;100.00;144450.03;1834997;77;22136;-57
2021/11/03 05:55:10;;;;;;;24.20;15.10;;;;;;;8.94;100.00;144453.81;1834955;77;22124;-56
2021/11/03 05:58:05;;;;;;;25.05;14.55;;;;;;;8.98;100.00;144463.81;1834810;77;22162;-56
2021/11/03 06:00:40;;;;;;;20.95;13.88;;;;;;;8.98;100.00;144463.81;1834988;77;22129;-58
2021/11/03 06:03:15;;;;;;;21.17;13.35;;;;;;;8.98;100.00;144465.09;1834984;77;22132;-60
2021/11/03 06:05:50;;;;;;;25.20;15.23;;;;;;;8.99;100.00;144466.34;1834986;77;22148;-58
2021/11/03 06:08:25;;;;;;;23.00;14.43;;;;;;;8.98;100.00;144463.81;1834987;77;22152;-60
2021/11/03 06:11:25;;;;;;;25.62;13.68;;;;;;;9.00;100.00;144468.83;1834696;77;22205;-60
2021/11/03 06:14:00;;;;;;;22.25;13.88;;;;;;;9.02;100.00;144473.84;1834963;77;22572;-59
2021/11/03 06:16:36;;;;;;;18.07;12.07;;;;;;;9.02;100.00;144473.84;1835019;77;22124;-59
2021/11/03 06:19:33;;;;;;;23.15;13.40;;;;;;;9.04;100.00;144480.11;1833203;77;22269;-60
2021/11/03 06:22:28;;;;;;;18.73;13.30;;;;;;;9.06;100.00;144483.88;1800376;77;28151;-59
2021/11/03 06:25:06;;;;;;;18.23;12.20;;;;;;;9.07;100.00;144487.62;1834902;77;22144;-57
2021/11/03 06:27:48;;;;;;;19.70;12.58;;;;;;;9.04;100.00;144480.11;1826638;77;22155;-56
2021/11/03 06:30:42;;;;;;;17.85;12.73;;;;;;;9.04;100.00;144480.11;1817760;77;22201;-60
2021/11/03 06:33:36;;;;;;;20.52;12.18;;;;;;;9.06;100.00;144483.88;1808995;77;22172;-57
2021/11/03 06:36:32;;;;;;;20.15;12.73;;;;;;;9.09;100.00;144491.39;1834344;77;22661;-57
2021/11/03 06:39:09;;;;;;;16.77;12.15;;;;;;;9.09;100.00;144491.39;1804920;77;28244;-58
2021/11/03 06:41:50;;;;;;;19.90;11.88;;;;;;;9.17;100.00;144511.42;1823631;77;22175;-57
2021/11/03 06:44:25;;;;;;;15.40;10.23;;;;;;;9.22;100.00;144523.95;1834917;77;22149;-58
2021/11/03 06:46:59;;;;;;;16.48;10.32;;;;;;;9.20;100.00;144518.94;1834971;77;22163;-56
2021/11/03 06:49:53;;;;;;;16.30;10.78;;;;;;;9.24;100.00;144528.97;1825266;77;22120;-60
2021/11/03 06:52:32;;;;;;;13.30;10.05;;;;;;;9.23;100.00;144525.19;1809066;77;28004;-59
2021/11/03 06:55:08;;;;;;;14.58;9.23;;;;;;;9.24;100.00;144527.73;1818448;77;22270;-64
2021/11/03 06:58:23;;;;;;;13.90;8.98;;;;;;;9.28;100.00;144538.97;1816178;77;22214;-61
2021/11/03 07:01:00;;;;;;;14.95;9.53;;;;;;;9.33;100.00;144551.50;1816886;77;22199;-59
2021/11/03 07:03:43;;;;;;;16.17;8.85;;;;;;;9.36;100.00;144557.77;1818610;77;22614;-56
2021/11/03 07:06:17;;;;;;;14.20;10.05;;;;;;;9.35;100.00;144556.52;1829870;77;22148;-59
2021/11/03 07:08:54;;;;;;;13.28;8.98;;;;;;;9.33;100.00;144550.25;1818269;77;22172;-60
2021/11/03 07:11:28;;;;;;;12.25;8.70;;;;;;;9.38;100.00;144561.53;1807201;77;28130;-57
2021/11/03 07:14:11;;;;;;;13.65;9.10;;;;;;;9.43;100.00;144574.06;1814483;77;22196;-60
2021/11/03 07:17:12;;;;;;;15.30;9.43;;;;;;;9.49;100.00;144590.37;1827811;77;22621;-61
2021/11/03 07:19:54;;;;;;;13.85;8.68;;;;;;;9.52;100.00;144596.64;1834116;77;22160;-60
2021/11/03 07:22:29;;;;;;;13.60;8.53;;;;;;;9.50;100.00;144591.63;1822795;77;22217;-60
2021/11/03 07:25:07;;;;;;;13.83;8.08;;;;;;;9.54;100.00;144602.91;1830086;77;22167;-62
2021/11/03 07:27:41;;;;;;;11.65;8.35;;;;;;;9.54;100.00;144601.63;1831572;77;22159;-59
2021/11/03 07:30:39;;;;;;;16.00;9.80;;;;;;;9.53;100.00;144599.13;1816917;77;22247;-61
2021/11/03 07:33:16;;;;;;;15.15;9.58;;;;;;;9.55;100.00;144605.41;1817292;77;22148;-59
2021/11/03 07:35:51;;;;;;;14.28;8.95;;;;;;;9.56;100.00;144606.64;1820249;77;22124;-55
2021/11/03 07:38:44;;;;;;;13.43;9.38;;;;;;;9.60;100.00;144615.44;1819205;77;22215;-58
2021/11/03 07:41:19;;;;;;;16.27;9.45;;;;;;;9.63;100.00;144624.19;1827040;77;22245;-57
2021/11/03 07:44:20;;;;;;;15.18;8.88;;;;;;;9.69;100.00;144639.27;1834407;77;22235;-60
2021/11/03 07:46:56;;;;;;;15.13;9.68;;;;;;;9.76;100.00;144656.78;1821798;77;22180;-61
2021/11/03 07:49:37;;;;;;;17.42;10.93;;;;;;;9.85;100.00;144676.86;1828327;77;22168;-59
2021/11/03 07:52:31;;;;;;;15.65;10.15;;;;;;;9.91;100.00;144693.13;1819941;77;22166;-61
2021/11/03 07:55:07;;;;;;;16.97;9.38;;;;;;;9.94;100.00;144699.39;1820075;77;22207;-61
2021/11/03 07:58:01;;;;;;;18.23;11.12;;;;;;;9.96;100.00;144704.42;1817074;77;22167;-58
2021/11/03 08:00:42;;;;;;;18.30;11.12;;;;;;;9.97;100.00;144708.20;1815755;77;22723;-58
2021/11/03 08:03:36;;;;;;;16.32;10.68;;;;;;;10.02;100.00;144719.44;1813608;77;22172;-62
2021/11/03 08:06:39;;;;;;;16.70;11.03;;;;;;;10.05;100.00;144727.00;1825044;77;22195;-58
2021/11/03 08:09:15;;;;;;;16.07;10.95;;;;;;;10.12;100.00;144743.28;1821342;77;22140;-60
2021/11/03 08:14:31;;;;;;;18.75;11.43;;;;;;;10.27;100.00;144779.64;1813104;77;22168;-57
2021/11/03 08:17:25;;;;;;;20.30;11.38;;;;;;;10.31;100.00;144790.98;1834491;77;22196;-60
2021/11/03 08:20:04;;;;;;;18.95;11.38;;;;;;;10.36;100.00;144802.28;1815708;77;22165;-56
2021/11/03 08:23:07;;;;;;;22.42;12.50;;;;;;;10.47;100.00;144829.84;1830157;77;23219;-58
2021/11/03 08:26:01;;;;;;;18.30;11.08;;;;;;;10.50;100.00;144836.13;1818955;77;22607;-59
2021/11/03 08:28:54;;;;;;;19.95;11.70;;;;;;;10.47;100.00;144829.84;1817273;77;22176;-59
2021/11/03 08:31:57;;;;;;;19.95;12.33;;;;;;;10.50;100.00;144836.13;1816645;77;22212;-57
2021/11/03 08:34:38;;;;;;;18.23;12.25;;;;;;;10.55;100.00;144849.91;1822951;77;22148;-58
2021/11/03 08:37:36;;;;;;;20.12;12.07;;;;;;;10.65;100.00;144875.00;1817830;77;22593;-59
2021/11/03 08:40:15;;;;;;;18.92;12.18;;;;;;;10.77;100.00;144903.86;1814462;77;22195;-60
2021/11/03 08:43:13;;;;;;;21.52;13.78;;;;;;;10.86;100.00;144925.17;1853376;77;22187;-60
2021/11/03 08:46:17;;;;;;;23.35;14.33;;;;;;;10.92;100.00;144940.25;1848559;77;22223;-61
2021/11/03 08:49:11;;;;;;;28.77;15.98;;;;;;;10.98;100.00;144954.05;1828195;77;22246;-63
2021/11/03 08:52:07;;;;;;;25.80;15.58;;;;;;;11.05;100.00;144972.86;1834949;77;22152;-61
2021/11/03 08:54:49;;;;;;;27.20;15.53;;;;;;;11.20;100.00;145008.02;1819354;77;22260;-60
2021/11/03 08:57:43;;;;;;;30.25;16.95;;;;;;;11.36;100.00;145048.16;1820500;77;22188;-58
2021/11/03 09:00:40;;;;;;;25.88;16.15;;;;;;;11.51;100.00;145084.56;1834800;77;22204;-59
2021/11/03 09:03:15;;;;;;;30.20;16.90;;;;;;;11.61;100.00;145108.41;1834941;77;22141;-58
2021/11/03 09:05:52;;;;;;;29.23;18.42;;;;;;;11.71;100.00;145134.77;1828929;77;28096;-57
2021/11/03 09:08:47;;;;;;;34.75;18.12;;;;;;;11.85;100.00;145167.41;1824331;77;22590;-58
2021/11/03 09:11:42;;;;;;;28.92;18.40;;;;;;;11.86;100.00;145171.23;1819053;77;27961;-61
2021/11/03 09:14:20;;;;;;;27.73;18.02;;;;;;;11.90;100.00;145180.00;1834896;77;22590;-61
2021/11/03 09:16:55;;;;;;;26.40;17.00;;;;;;;11.93;100.00;145187.52;1834821;77;22587;-59
2021/11/03 09:19:38;;;;;;;26.87;16.65;;;;;;;12.02;100.00;145208.89;1848611;77;22213;-59
2021/11/03 09:22:13;;;;;;;27.02;17.70;;;;;;;12.04;100.00;145215.17;1827431;77;22168;-58
2021/11/03 09:24:53;;;;;;;30.23;17.73;;;;;;;11.98;100.00;145198.83;1843243;77;22610;-57
2021/11/03 09:27:36;;;;;;;30.43;18.65;;;;;;;12.02;100.00;145208.89;1833904;77;22167;-59
2021/11/03 09:30:31;;;;;;;27.05;18.10;;;;;;;12.10;100.00;145230.22;1824982;77;22143;-59
2021/11/03 09:33:12;;;;;;;29.65;18.82;;;;;;;12.16;100.00;145244.03;1853425;77;22636;-59
2021/11/03 09:35:55;;;;;;;28.75;18.48;;;;;;;12.08;100.00;145223.94;1853436;77;22288;-58
2021/11/03 09:38:32;;;;;;;36.23;22.75;;;;;;;12.12;100.00;145235.25;1834843;77;22245;-58
2021/11/03 09:41:20;;;;;;;37.55;24.02;;;;;;;12.22;100.00;145259.13;1848061;77;22219;-59
2021/11/03 09:44:02;;;;;;;36.42;23.38;;;;;;;12.34;100.00;145288.03;1817838;77;22192;-59
2021/11/03 09:46:45;;;;;;;35.52;22.35;;;;;;;12.49;99.95;145324.41;1832387;77;22168;-59
2021/11/03 09:49:33;;;;;;;36.77;25.35;;;;;;;12.59;99.34;145349.53;1827407;77;22171;-58
2021/11/03 09:52:41;;;;;;;35.92;24.12;;;;;;;12.83;98.37;145408.61;1821218;77;22199;-56
2021/11/03 09:55:35;;;;;;;34.35;22.82;;;;;;;13.14;97.50;145484.00;1808623;77;22200;-58
2021/11/03 09:59:18;;;;;;;38.78;23.65;;;;;;;13.28;96.43;145517.97;1825585;77;22617;-57
2021/11/03 10:02:22;;;;;;;34.98;22.42;;;;;;;13.27;95.64;145516.72;1817026;77;22215;-56
2021/11/03 10:05:28;;;;;;;37.75;24.45;;;;;;;13.30;95.20;145523.00;1834612;77;22185;-59
2021/11/03 10:08:17;;;;;;;40.50;25.72;;;;;;;13.23;94.71;145506.66;1834761;77;22159;-60
2021/11/03 10:11:06;;;;;;;37.38;24.27;;;;;;;13.14;94.42;145484.00;1834877;77;22133;-60
2021/11/03 10:13:58;;;;;;;33.78;22.62;;;;;;;13.01;93.99;145452.59;1834724;77;22163;-61
2021/11/03 10:16:38;;;;;;;36.10;23.60;;;;;;;12.96;94.13;145440.03;1853579;77;22123;-59
2021/11/03 10:19:41;;;;;;;36.55;25.80;;;;;;;12.97;94.18;145442.52;1818346;77;28058;-62
2021/11/03 10:22:39;;;;;;;36.98;24.18;;;;;;;13.08;94.09;145468.91;1834904;77;22144;-62
2021/11/03 10:25:33;;;;;;;34.43;23.05;;;;;;;13.18;93.54;145495.33;1853567;77;22155;-60
2021/11/03 10:28:41;;;;;;;38.25;25.12;;;;;;;13.21;93.27;145502.86;1834869;77;22132;-61
2021/11/03 10:31:30;;;;;;;35.25;24.30;;;;;;;13.16;93.09;145489.05;1831374;77;22184;-56
2021/11/03 10:34:38;;;;;;;38.02;26.12;;;;;;;13.08;93.28;145470.19;1828005;77;22200;-59
2021/11/03 10:37:21;;;;;;;37.08;24.10;;;;;;;13.03;93.31;145457.63;1853424;77;22168;-59
2021/11/03 10:40:25;;;;;;;33.98;23.15;;;;;;;12.98;93.69;145446.31;1834820;77;22156;-59
2021/11/03 10:43:03;;;;;;;34.23;23.30;;;;;;;12.96;93.84;145440.03;1851993;77;22653;-59
2021/11/03 10:46:23;;;;;;;32.95;23.35;;;;;;;12.94;93.93;145434.98;1833972;77;22176;-58
2021/11/03 10:49:27;;;;;;;41.92;26.40;;;;;;;12.95;94.01;145437.48;1834719;77;22133;-60
2021/11/03 10:52:18;;;;;;;39.55;25.48;;;;;;;12.98;94.02;145445.06;1834891;77;22164;-57
2021/11/03 10:55:21;;;;;;;32.17;22.32;;;;;;;13.01;93.97;145452.59;1853370;77;22188;-58
2021/11/03 10:58:28;;;;;;;37.55;24.57;;;;;;;13.10;93.70;145475.23;1834942;77;22164;-60
2021/11/03 11:01:14;;;;;;;37.08;24.10;;;;;;;13.28;93.42;145519.27;1834544;77;22140;-56
2021/11/03 11:04:13;;;;;;;33.92;23.80;;;;;;;13.57;92.94;145590.89;1835009;77;20104;-60
2021/11/03 11:07:19;;;;;;;40.08;25.97;;;;;;;13.85;92.20;145658.80;1834820;77;22164;-60
2021/11/03 11:10:21;;;;;;;33.42;22.50;;;;;;;14.17;91.37;145738.05;1834806;77;22167;-58
2021/11/03 11:13:28;;;;;;;32.65;23.20;;;;;;;14.59;89.71;145839.97;1834081;77;22164;-61
2021/11/03 11:16:31;;;;;;;33.85;23.42;;;;;;;14.83;87.44;145900.34;1834038;77;22192;-63
2021/11/03 11:19:37;;;;;;;34.58;20.80;;;;;;;14.88;86.30;145912.97;1834830;77;22195;-63
2021/11/03 11:22:47;;;;;;;24.45;18.35;;;;;;;14.92;84.20;145923.02;1853366;77;22215;-63
2021/11/03 11:25:53;;;;;;;29.95;21.12;;;;;;;14.89;82.82;145914.22;1853397;77;22214;-62
2021/11/03 11:28:39;;;;;;;28.20;20.45;;;;;;;14.92;82.41;145923.02;1808970;77;22187;-60
2021/11/03 11:31:30;;;;;;;26.75;18.60;;;;;;;15.10;81.55;145967.06;1853246;77;22232;-63
2021/11/03 11:35:03;;;;;;;28.60;19.40;;;;;;;15.38;79.37;146036.30;1823209;77;22172;-60
2021/11/03 11:38:13;;;;;;;27.55;19.05;;;;;;;15.68;78.17;146109.34;1818335;77;22246;-59
2021/11/03 11:40:59;;;;;;;27.90;17.62;;;;;;;15.95;76.57;146176.16;1820852;77;22574;-61
2021/11/03 11:43:51;;;;;;;24.85;18.65;;;;;;;15.91;74.85;146164.81;1837588;77;28011;-59
2021/11/03 11:46:47;;;;;;;21.68;16.07;;;;;;;15.83;74.02;146147.16;1834682;77;22250;-62
2021/11/03 11:49:33;;;;;;;22.00;15.32;;;;;;;15.74;73.37;146123.23;1852987;77;22589;-61
